Time;durP1;ratioP1;P1;durP2;ratioP2;P2;SDS_P1;SDS_P2;PMS_P1;PMS_P2;Temp;Humidity;BMP_temperature;BMP_pressure;BME280_temperature;BME280_humidity;BME280_pressure;Samples;Min_cycle;Max_cycle;Signal;HPM_P1;HPM_P2
2023/09/15 00:02:09;;;;;;;0.22;0.22;;;10.70;99.90;;;;;;5090834;28;20035;-71
2023/09/15 00:04:34;;;;;;;0.30;0.30;;;10.70;99.90;;;;;;5110853;27;20075;-71
2023/09/15 00:07:00;;;;;;;0.40;0.40;;;10.60;99.90;;;;;;5099659;28;20050;-71
2023/09/15 00:09:25;;;;;;;0.30;0.30;;;10.60;99.90;;;;;;5116248;27;20119;-71
2023/09/15 00:11:51;;;;;;;0.30;0.30;;;10.60;99.90;;;;;;5097264;27;20047;-71
2023/09/15 00:14:18;;;;;;;0.40;0.40;;;10.60;99.90;;;;;;5104110;28;20124;-71
2023/09/15 00:16:44;;;;;;;0.32;0.32;;;10.50;99.90;;;;;;5091725;28;20416;-71
2023/09/15 00:19:14;;;;;;;0.40;0.40;;;10.50;99.90;;;;;;5096295;28;20059;-71
2023/09/15 00:21:44;;;;;;;0.38;0.38;;;10.50;99.90;;;;;;5108531;28;20078;-71
2023/09/15 00:24:09;;;;;;;0.40;0.40;;;10.50;99.90;;;;;;5090891;28;20048;-71
2023/09/15 00:26:36;;;;;;;0.45;0.45;;;10.40;99.90;;;;;;5091143;28;20036;-71
2023/09/15 00:29:04;;;;;;;0.40;0.40;;;10.40;99.90;;;;;;5091463;28;20051;-71
2023/09/15 00:31:30;;;;;;;0.40;0.40;;;10.30;99.90;;;;;;5089860;27;20046;-72
2023/09/15 00:33:55;;;;;;;0.30;0.30;;;10.30;99.90;;;;;;5093196;28;20051;-72
2023/09/15 00:36:22;;;;;;;0.32;0.32;;;10.30;99.90;;;;;;5095511;28;20047;-72
2023/09/15 00:38:47;;;;;;;0.30;0.30;;;10.20;99.90;;;;;;5091461;28;20452;-72
2023/09/15 00:41:19;;;;;;;0.38;0.38;;;10.20;99.90;;;;;;5091651;27;20192;-72
2023/09/15 00:43:45;;;;;;;0.38;0.38;;;10.20;99.90;;;;;;5114363;27;20097;-72
2023/09/15 00:46:10;;;;;;;0.30;0.30;;;10.20;99.90;;;;;;5104913;27;20166;-71
2023/09/15 00:48:39;;;;;;;0.30;0.30;;;10.10;99.90;;;;;;5090666;28;20051;-72
2023/09/15 00:51:07;;;;;;;0.40;0.40;;;10.10;99.90;;;;;;5088806;28;20094;-72
2023/09/15 00:53:35;;;;;;;0.40;0.40;;;10.10;99.90;;;;;;5078603;28;20082;-71
2023/09/15 00:56:03;;;;;;;0.40;0.40;;;10.10;99.90;;;;;;5101756;27;20552;-71
2023/09/15 00:58:31;;;;;;;0.40;0.40;;;10.00;99.90;;;;;;5101213;28;20423;-71
2023/09/15 01:00:56;;;;;;;0.60;0.60;;;10.00;99.90;;;;;;5090545;28;20039;-72
2023/09/15 01:03:24;;;;;;;0.30;0.30;;;9.90;99.90;;;;;;5106007;28;20562;-71
2023/09/15 01:05:50;;;;;;;0.50;0.50;;;9.90;99.90;;;;;;5088903;28;20057;-71
2023/09/15 01:08:16;;;;;;;0.43;0.43;;;9.90;99.90;;;;;;5086817;28;20096;-72
2023/09/15 01:10:42;;;;;;;0.30;0.30;;;9.90;99.90;;;;;;5088959;28;20086;-71
2023/09/15 01:13:08;;;;;;;0.73;0.73;;;9.80;99.90;;;;;;5113567;27;20047;-71
2023/09/15 01:16:15;;;;;;;0.43;0.43;;;9.80;99.90;;;;;;5093430;28;20043;-71
2023/09/15 01:18:50;;;;;;;0.70;0.70;;;9.70;99.90;;;;;;5087953;27;20062;-71
2023/09/15 01:21:32;;;;;;;0.38;0.38;;;9.70;99.90;;;;;;5095053;28;20082;-72
2023/09/15 01:24:29;;;;;;;0.40;0.40;;;9.70;99.90;;;;;;5089491;28;20055;-71
2023/09/15 01:27:29;;;;;;;0.30;0.30;;;9.60;99.90;;;;;;5087957;28;20047;-71
2023/09/15 01:29:57;;;;;;;0.40;0.40;;;9.60;99.90;;;;;;5092251;28;20059;-71
2023/09/15 01:32:24;;;;;;;0.47;0.47;;;9.60;99.90;;;;;;5096836;28;20584;-71
2023/09/15 01:34:52;;;;;;;0.30;0.30;;;9.60;99.90;;;;;;5089102;28;20043;-71
2023/09/15 01:37:20;;;;;;;0.43;0.43;;;9.60;99.90;;;;;;5096246;28;20047;-71
2023/09/15 01:39:50;;;;;;;0.40;0.40;;;9.50;99.90;;;;;;5105338;28;20122;-71
2023/09/15 01:42:15;;;;;;;0.43;0.43;;;9.50;99.90;;;;;;5089611;28;20082;-72
2023/09/15 01:44:41;;;;;;;0.30;0.30;;;9.50;99.90;;;;;;5102884;28;20079;-72
2023/09/15 01:47:08;;;;;;;0.20;0.20;;;9.50;99.90;;;;;;5085203;28;20173;-72
2023/09/15 01:49:35;;;;;;;0.33;0.33;;;9.50;99.90;;;;;;5104544;28;20051;-71
2023/09/15 01:52:02;;;;;;;0.50;0.50;;;9.40;99.90;;;;;;5113984;27;20412;-72
2023/09/15 01:54:28;;;;;;;0.40;0.40;;;9.40;99.90;;;;;;5096939;28;20048;-71
2023/09/15 01:56:54;;;;;;;0.28;0.28;;;9.40;99.90;;;;;;5093893;28;20077;-72
2023/09/15 01:59:19;;;;;;;0.30;0.30;;;9.40;99.90;;;;;;5093444;28;20122;-72
2023/09/15 02:01:45;;;;;;;0.40;0.40;;;9.40;99.90;;;;;;5098730;27;20709;-71
2023/09/15 02:04:11;;;;;;;0.57;0.57;;;9.30;99.90;;;;;;5091814;28;20074;-71
2023/09/15 02:06:36;;;;;;;0.30;0.30;;;9.30;99.90;;;;;;5096355;27;20046;-72
2023/09/15 02:09:06;;;;;;;0.30;0.30;;;9.30;99.90;;;;;;5096512;28;20047;-71
2023/09/15 02:11:32;;;;;;;0.30;0.30;;;9.30;99.90;;;;;;5092654;27;20043;-71
2023/09/15 02:13:57;;;;;;;0.30;0.30;;;9.30;99.90;;;;;;5126864;27;20043;-71
2023/09/15 02:16:24;;;;;;;0.30;0.30;;;9.20;99.90;;;;;;5086309;28;20069;-71
2023/09/15 02:18:50;;;;;;;0.32;0.32;;;9.20;99.90;;;;;;5096827;28;20055;-71
2023/09/15 02:21:17;;;;;;;0.50;0.50;;;9.20;99.90;;;;;;5093463;27;20079;-71
2023/09/15 02:23:42;;;;;;;0.30;0.30;;;9.20;99.90;;;;;;5072240;27;20069;-71
2023/09/15 02:26:08;;;;;;;0.32;0.32;;;9.20;99.90;;;;;;5098179;28;20051;-71
2023/09/15 02:28:35;;;;;;;0.30;0.30;;;9.20;99.90;;;;;;5094392;28;20047;-72
2023/09/15 02:31:04;;;;;;;0.40;0.40;;;9.10;99.90;;;;;;5093105;27;20484;-72
2023/09/15 02:33:30;;;;;;;0.40;0.40;;;9.10;99.90;;;;;;5092217;28;20462;-72
2023/09/15 02:35:56;;;;;;;0.30;0.30;;;9.10;99.90;;;;;;5092453;28;20043;-72
2023/09/15 02:38:21;;;;;;;0.40;0.40;;;9.10;99.90;;;;;;5109520;28;20131;-71
2023/09/15 02:40:47;;;;;;;0.30;0.30;;;9.00;99.90;;;;;;5083830;28;20048;-71
2023/09/15 02:43:13;;;;;;;0.40;0.40;;;9.00;99.90;;;;;;5097154;27;20685;-72
2023/09/15 02:45:39;;;;;;;0.40;0.40;;;9.00;99.90;;;;;;5091214;28;20561;-71
2023/09/15 02:48:05;;;;;;;0.40;0.40;;;9.00;99.90;;;;;;5086115;27;20051;-72
2023/09/15 02:50:31;;;;;;;0.40;0.40;;;9.00;99.90;;;;;;5085083;28;20093;-72
2023/09/15 02:52:59;;;;;;;0.20;0.20;;;9.00;99.90;;;;;;5102985;28;20051;-71
2023/09/15 02:55:26;;;;;;;0.30;0.30;;;8.90;99.90;;;;;;5077067;28;20043;-72
2023/09/15 02:57:52;;;;;;;0.40;0.40;;;8.90;99.90;;;;;;5088645;28;20040;-71
2023/09/15 03:00:19;;;;;;;0.50;0.50;;;8.90;99.90;;;;;;5093889;27;20051;-71
2023/09/15 03:02:48;;;;;;;0.50;0.50;;;8.90;99.90;;;;;;5095565;28;20054;-71
2023/09/15 03:05:14;;;;;;;0.30;0.30;;;8.90;99.90;;;;;;5093048;27;20051;-71
2023/09/15 03:07:41;;;;;;;0.30;0.30;;;8.90;99.90;;;;;;5093189;28;20047;-71
2023/09/15 03:10:07;;;;;;;0.32;0.32;;;8.80;99.90;;;;;;5086452;28;20079;-71
2023/09/15 03:12:33;;;;;;;0.30;0.30;;;8.80;99.90;;;;;;5103306;28;20055;-71
2023/09/15 03:15:04;;;;;;;0.30;0.30;;;8.80;99.90;;;;;;5088354;28;20055;-71
2023/09/15 03:17:29;;;;;;;0.30;0.30;;;8.80;99.90;;;;;;5093855;28;20050;-71
2023/09/15 03:19:55;;;;;;;0.40;0.40;;;8.80;99.90;;;;;;5088623;28;20048;-72
2023/09/15 03:22:20;;;;;;;0.50;0.50;;;8.80;99.90;;;;;;5098570;27;20476;-71
2023/09/15 03:24:46;;;;;;;0.43;0.43;;;8.70;99.90;;;;;;5089226;28;20039;-71
2023/09/15 03:27:13;;;;;;;0.40;0.40;;;8.70;99.90;;;;;;5108569;28;20393;-71
2023/09/15 03:29:38;;;;;;;0.30;0.30;;;8.70;99.90;;;;;;5090161;28;20079;-72
2023/09/15 03:32:04;;;;;;;0.22;0.22;;;8.70;99.90;;;;;;5114832;27;20143;-72
2023/09/15 03:34:30;;;;;;;0.40;0.40;;;8.70;99.90;;;;;;5090967;28;20043;-72
2023/09/15 03:36:56;;;;;;;0.30;0.30;;;8.60;99.90;;;;;;5091257;28;20514;-72
2023/09/15 03:39:22;;;;;;;0.35;0.35;;;8.60;99.90;;;;;;5090315;28;20583;-72
2023/09/15 03:41:48;;;;;;;0.40;0.40;;;8.60;99.90;;;;;;5097209;27;20376;-71
2023/09/15 03:44:13;;;;;;;0.60;0.60;;;8.60;99.90;;;;;;5091903;28;20087;-71
2023/09/15 03:46:39;;;;;;;0.30;0.30;;;8.60;99.90;;;;;;5092849;27;20043;-71
2023/09/15 03:49:05;;;;;;;0.40;0.40;;;8.60;99.90;;;;;;5094076;28;20059;-71
2023/09/15 03:51:31;;;;;;;0.40;0.40;;;8.60;99.90;;;;;;5095535;27;20848;-71
2023/09/15 03:53:56;;;;;;;0.30;0.30;;;8.50;99.90;;;;;;5091453;28;20122;-71
2023/09/15 03:56:23;;;;;;;0.25;0.25;;;8.50;99.90;;;;;;5094606;27;20045;-71
2023/09/15 03:58:49;;;;;;;0.38;0.38;;;8.50;99.90;;;;;;5097689;28;20122;-71
2023/09/15 04:01:19;;;;;;;0.40;0.40;;;8.50;99.90;;;;;;5092464;28;20647;-72
2023/09/15 04:03:46;;;;;;;0.40;0.40;;;8.50;99.90;;;;;;5083759;28;20044;-71
2023/09/15 04:06:11;;;;;;;0.30;0.30;;;8.50;99.90;;;;;;5097771;27;20039;-71
2023/09/15 04:08:37;;;;;;;0.40;0.40;;;8.50;99.90;;;;;;5097441;27;20544;-71
2023/09/15 04:11:02;;;;;;;0.30;0.30;;;8.50;99.90;;;;;;5093001;28;20434;-71
2023/09/15 04:13:29;;;;;;;0.30;0.30;;;8.40;99.90;;;;;;5100416;27;20412;-71
2023/09/15 04:15:56;;;;;;;0.60;0.60;;;8.40;99.90;;;;;;5073471;28;20044;-72
2023/09/15 04:18:22;;;;;;;0.40;0.40;;;8.40;99.90;;;;;;5081824;28;20567;-71
2023/09/15 04:20:51;;;;;;;0.40;0.40;;;8.40;99.90;;;;;;5065958;28;20535;-71
2023/09/15 04:23:17;;;;;;;0.30;0.30;;;8.40;99.90;;;;;;5067253;28;20448;-71
2023/09/15 04:25:43;;;;;;;0.30;0.30;;;8.40;99.90;;;;;;5066869;28;20032;-71
2023/09/15 04:28:08;;;;;;;0.40;0.40;;;8.40;99.90;;;;;;5066089;28;20549;-71
2023/09/15 04:30:34;;;;;;;0.40;0.40;;;8.30;99.90;;;;;;5064225;28;20052;-71
2023/09/15 04:33:00;;;;;;;0.40;0.40;;;8.30;99.90;;;;;;5076443;28;20052;-71
2023/09/15 04:35:27;;;;;;;0.25;0.25;;;8.30;99.90;;;;;;5070490;28;20114;-72
2023/09/15 04:37:54;;;;;;;0.25;0.25;;;8.30;99.90;;;;;;5067749;28;20111;-72
2023/09/15 04:40:20;;;;;;;0.35;0.35;;;8.30;99.90;;;;;;5064428;28;20066;-72
2023/09/15 04:42:46;;;;;;;0.32;0.32;;;8.20;99.90;;;;;;5070494;28;20750;-72
2023/09/15 04:45:11;;;;;;;0.30;0.30;;;8.20;99.90;;;;;;5065144;28;20056;-72
2023/09/15 04:47:38;;;;;;;0.30;0.30;;;8.20;99.90;;;;;;5077174;28;20048;-72
2023/09/15 04:50:06;;;;;;;0.30;0.30;;;8.20;99.90;;;;;;5069298;28;20040;-72
2023/09/15 04:52:31;;;;;;;0.35;0.35;;;8.20;99.90;;;;;;5071798;28;20056;-72
2023/09/15 04:54:57;;;;;;;0.30;0.30;;;8.10;99.90;;;;;;5065389;28;20040;-72
2023/09/15 04:57:23;;;;;;;0.68;0.68;;;8.10;99.90;;;;;;5073091;28;20063;-72
2023/09/15 04:59:48;;;;;;;0.35;0.35;;;8.10;99.90;;;;;;5060772;28;20531;-72
2023/09/15 05:02:14;;;;;;;0.30;0.30;;;8.10;99.90;;;;;;5061580;28;20067;-72
2023/09/15 05:04:41;;;;;;;0.47;0.47;;;8.10;99.90;;;;;;5065715;28;20043;-72
2023/09/15 05:07:07;;;;;;;0.30;0.30;;;8.10;99.90;;;;;;5069824;28;20055;-72
2023/09/15 05:09:32;;;;;;;0.30;0.30;;;8.10;99.90;;;;;;5078679;28;20044;-72
2023/09/15 05:11:58;;;;;;;0.40;0.40;;;8.00;99.90;;;;;;5057814;28;20374;-72
2023/09/15 05:14:23;;;;;;;0.30;0.30;;;8.00;99.90;;;;;;5068966;28;20048;-73
2023/09/15 05:16:50;;;;;;;0.30;0.30;;;8.00;99.90;;;;;;5071018;28;20040;-72
2023/09/15 05:19:16;;;;;;;0.30;0.30;;;8.00;99.90;;;;;;5080171;28;20048;-73
2023/09/15 05:21:42;;;;;;;0.40;0.40;;;8.00;99.90;;;;;;5087619;28;20777;-73
2023/09/15 05:24:08;;;;;;;0.30;0.30;;;8.00;99.90;;;;;;5087593;28;20550;-73
2023/09/15 05:26:34;;;;;;;0.30;0.30;;;8.00;99.90;;;;;;5085777;28;20048;-72
2023/09/15 05:29:03;;;;;;;0.30;0.30;;;8.00;99.90;;;;;;5097411;28;20048;-73
2023/09/15 05:31:29;;;;;;;0.40;0.40;;;8.00;99.90;;;;;;5071618;28;20048;-73
2023/09/15 05:33:55;;;;;;;0.38;0.38;;;8.10;99.90;;;;;;5086507;28;20079;-73
2023/09/15 05:36:21;;;;;;;0.88;0.88;;;8.10;99.90;;;;;;5088197;28;20044;-73
2023/09/15 05:38:48;;;;;;;0.35;0.35;;;8.10;99.90;;;;;;5096138;28;20043;-73
2023/09/15 05:41:14;;;;;;;0.40;0.40;;;8.20;99.90;;;;;;5086988;28;20131;-73
2023/09/15 05:43:40;;;;;;;0.40;0.40;;;8.20;99.90;;;;;;5085330;28;20048;-73
2023/09/15 05:46:06;;;;;;;0.30;0.30;;;8.40;99.90;;;;;;5074748;28;20044;-73
2023/09/15 05:48:32;;;;;;;0.30;0.30;;;8.40;99.90;;;;;;5089560;28;20051;-73
2023/09/15 05:50:58;;;;;;;0.30;0.30;;;8.50;99.90;;;;;;5085335;28;20048;-73
2023/09/15 05:53:23;;;;;;;0.30;0.30;;;8.60;99.90;;;;;;5086318;28;20101;-73
2023/09/15 05:55:49;;;;;;;0.40;0.40;;;8.70;99.90;;;;;;5088718;28;20584;-73
2023/09/15 05:58:15;;;;;;;0.40;0.40;;;8.80;99.90;;;;;;5085086;28;20067;-74
2023/09/15 06:00:41;;;;;;;0.50;0.50;;;8.90;99.90;;;;;;5098541;28;20044;-74
2023/09/15 06:03:08;;;;;;;0.43;0.43;;;9.00;99.90;;;;;;5083887;28;20088;-73
2023/09/15 06:05:34;;;;;;;0.32;0.32;;;9.10;99.90;;;;;;5087140;28;20044;-73
2023/09/15 06:08:03;;;;;;;0.30;0.30;;;9.20;99.90;;;;;;5089131;28;20055;-73
2023/09/15 06:10:29;;;;;;;0.50;0.50;;;9.20;99.90;;;;;;5079650;28;20087;-74
2023/09/15 06:12:54;;;;;;;0.30;0.30;;;9.20;99.90;;;;;;5092113;28;20056;-73
2023/09/15 06:15:21;;;;;;;0.38;0.38;;;9.20;99.90;;;;;;5083738;28;20048;-74
2023/09/15 06:17:48;;;;;;;0.40;0.40;;;9.20;99.90;;;;;;5084976;28;20056;-74
2023/09/15 06:20:14;;;;;;;0.85;0.85;;;9.30;99.90;;;;;;5106259;28;20485;-73
2023/09/15 06:22:39;;;;;;;0.50;0.50;;;9.30;99.90;;;;;;5087574;28;20039;-73
2023/09/15 06:25:05;;;;;;;0.40;0.40;;;9.30;99.90;;;;;;5098033;28;20189;-73
2023/09/15 06:27:35;;;;;;;0.40;0.40;;;9.40;99.90;;;;;;5092560;28;20047;-75
2023/09/15 06:30:03;;;;;;;1.10;1.05;;;9.40;99.90;;;;;;5089574;28;20131;-73
2023/09/15 06:32:29;;;;;;;0.40;0.40;;;9.50;99.90;;;;;;5091993;28;20075;-73
2023/09/15 06:34:54;;;;;;;0.73;0.73;;;9.60;99.90;;;;;;5090615;28;20078;-73
2023/09/15 06:37:20;;;;;;;0.85;0.85;;;9.60;99.90;;;;;;5092821;28;20162;-73
2023/09/15 06:39:46;;;;;;;0.40;0.40;;;9.70;99.90;;;;;;5093529;28;20044;-73
2023/09/15 06:42:11;;;;;;;0.50;0.50;;;9.80;99.90;;;;;;5093466;28;20051;-73
2023/09/15 06:44:37;;;;;;;0.40;0.40;;;9.90;99.90;;;;;;5099742;28;20039;-73
2023/09/15 06:47:04;;;;;;;0.70;0.70;;;10.00;99.90;;;;;;5099036;27;20039;-73
2023/09/15 06:49:31;;;;;;;0.35;0.35;;;10.10;99.90;;;;;;5086590;28;20387;-74
2023/09/15 06:51:57;;;;;;;0.40;0.40;;;10.20;99.90;;;;;;5112756;27;20035;-74
2023/09/15 06:54:23;;;;;;;2.17;0.70;;;10.40;99.90;;;;;;5095038;28;20122;-74
2023/09/15 06:56:50;;;;;;;0.30;0.30;;;10.50;99.90;;;;;;5089789;28;20511;-75
2023/09/15 06:59:16;;;;;;;1.07;0.57;;;10.70;99.90;;;;;;5091774;28;20662;-74
2023/09/15 07:01:43;;;;;;;0.50;0.50;;;10.90;99.90;;;;;;5110990;28;20631;-74
2023/09/15 07:04:12;;;;;;;0.40;0.40;;;11.10;99.90;;;;;;5093667;27;20130;-74
2023/09/15 07:06:41;;;;;;;0.60;0.60;;;11.30;99.90;;;;;;5096622;27;20408;-74
2023/09/15 07:09:07;;;;;;;0.70;0.70;;;11.50;99.90;;;;;;5096813;27;20061;-74
2023/09/15 07:11:32;;;;;;;0.40;0.40;;;11.60;99.90;;;;;;5095547;28;20049;-74
2023/09/15 07:13:58;;;;;;;0.85;0.60;;;11.80;99.90;;;;;;5087031;28;20096;-74
2023/09/15 07:16:24;;;;;;;0.40;0.40;;;12.00;99.90;;;;;;5092955;28;20054;-74
2023/09/15 07:18:49;;;;;;;1.15;1.05;;;12.20;99.90;;;;;;5099699;28;20047;-75
2023/09/15 07:21:15;;;;;;;0.50;0.50;;;12.40;99.90;;;;;;5087559;28;20047;-74
2023/09/15 07:23:40;;;;;;;0.68;0.68;;;12.60;99.90;;;;;;5101744;28;20160;-75
2023/09/15 07:26:06;;;;;;;0.40;0.40;;;12.70;99.90;;;;;;5089730;28;20522;-74
2023/09/15 07:28:32;;;;;;;0.40;0.40;;;12.90;99.90;;;;;;5092245;28;20092;-75
2023/09/15 07:31:09;;;;;;;0.60;0.60;;;13.10;99.90;;;;;;5086510;28;20040;-74
2023/09/15 07:33:35;;;;;;;0.45;0.45;;;13.40;99.90;;;;;;5105994;27;20067;-74
2023/09/15 07:36:02;;;;;;;0.45;0.45;;;13.50;99.90;;;;;;5083202;28;20055;-75
2023/09/15 07:38:29;;;;;;;0.40;0.40;;;13.70;99.90;;;;;;5094444;27;20058;-75
2023/09/15 07:40:55;;;;;;;0.60;0.60;;;13.90;99.90;;;;;;5096278;28;20092;-76
2023/09/15 07:43:23;;;;;;;0.40;0.40;;;14.00;99.90;;;;;;5099481;28;20047;-76
2023/09/15 07:45:50;;;;;;;0.68;0.50;;;14.20;99.90;;;;;;5086433;28;20543;-75
2023/09/15 07:48:16;;;;;;;0.40;0.40;;;14.40;99.90;;;;;;5087897;28;20104;-76
2023/09/15 07:50:42;;;;;;;0.32;0.32;;;14.50;99.90;;;;;;5077248;28;20156;-75
2023/09/15 07:53:08;;;;;;;0.40;0.40;;;14.70;99.90;;;;;;5126613;27;20051;-76
2023/09/15 07:55:33;;;;;;;2.35;1.15;;;14.80;99.90;;;;;;5101158;28;20583;-76
2023/09/15 07:57:59;;;;;;;0.38;0.38;;;15.00;99.90;;;;;;5089409;28;20072;-76
2023/09/15 08:00:25;;;;;;;0.38;0.38;;;15.10;99.90;;;;;;5094226;28;20052;-75
2023/09/15 08:02:50;;;;;;;0.45;0.45;;;15.20;99.90;;;;;;5098582;27;20048;-75
2023/09/15 08:05:16;;;;;;;0.80;0.68;;;15.30;99.90;;;;;;5108310;27;20111;-75
2023/09/15 08:07:46;;;;;;;0.43;0.43;;;15.40;99.90;;;;;;5092162;28;20040;-75
2023/09/15 08:10:14;;;;;;;0.47;0.47;;;15.60;99.90;;;;;;5094073;28;20400;-75
2023/09/15 08:12:40;;;;;;;0.30;0.30;;;15.70;99.90;;;;;;5085440;28;20051;-75
2023/09/15 08:15:06;;;;;;;0.63;0.63;;;15.90;99.90;;;;;;5085451;28;20055;-75
2023/09/15 08:17:32;;;;;;;0.60;0.60;;;16.00;99.90;;;;;;5084154;28;20054;-75
2023/09/15 08:19:59;;;;;;;0.47;0.47;;;16.10;99.90;;;;;;5086077;27;20047;-75
2023/09/15 08:22:26;;;;;;;0.52;0.45;;;16.30;99.90;;;;;;5102643;28;20055;-75
2023/09/15 08:24:53;;;;;;;0.50;0.50;;;16.50;99.90;;;;;;5092986;28;20079;-75
2023/09/15 08:27:19;;;;;;;0.57;0.50;;;16.70;99.90;;;;;;5095101;28;20058;-75
2023/09/15 08:29:45;;;;;;;0.30;0.30;;;16.80;99.90;;;;;;5099135;28;20043;-75
2023/09/15 08:32:10;;;;;;;0.50;0.50;;;17.00;99.90;;;;;;5096834;27;20507;-74
2023/09/15 08:34:36;;;;;;;0.55;0.55;;;17.20;99.90;;;;;;5088653;28;20576;-75
2023/09/15 08:37:03;;;;;;;0.60;0.60;;;17.40;99.90;;;;;;5100657;27;20439;-75
2023/09/15 08:39:28;;;;;;;1.55;0.57;;;17.50;99.90;;;;;;5097808;28;20043;-75
2023/09/15 08:42:01;;;;;;;0.30;0.30;;;17.70;99.90;;;;;;5093651;27;20381;-75
2023/09/15 08:44:31;;;;;;;0.95;0.80;;;17.90;99.90;;;;;;5088781;28;20047;-74
2023/09/15 08:47:00;;;;;;;0.38;0.38;;;18.10;99.90;;;;;;5090810;28;20097;-73
2023/09/15 08:49:27;;;;;;;0.30;0.30;;;18.20;99.90;;;;;;5076563;28;20043;-73
2023/09/15 08:51:55;;;;;;;0.40;0.40;;;18.40;99.90;;;;;;5091124;28;20055;-76
2023/09/15 08:54:21;;;;;;;0.50;0.50;;;18.50;99.90;;;;;;5090264;28;20126;-74
2023/09/15 08:56:47;;;;;;;0.30;0.30;;;18.70;99.90;;;;;;5097968;27;20070;-73
2023/09/15 08:59:14;;;;;;;0.30;0.30;;;18.90;99.90;;;;;;5091825;27;20087;-73
2023/09/15 09:01:40;;;;;;;0.32;0.32;;;19.00;99.90;;;;;;5083255;28;20035;-73
2023/09/15 09:04:06;;;;;;;0.55;0.55;;;19.20;99.90;;;;;;5100620;27;20184;-73
2023/09/15 09:06:34;;;;;;;0.65;0.65;;;19.30;99.90;;;;;;5098349;28;20119;-73
2023/09/15 09:09:01;;;;;;;0.57;0.57;;;19.40;99.90;;;;;;5096505;27;20122;-73
2023/09/15 09:11:27;;;;;;;3.00;0.80;;;19.50;99.90;;;;;;5087768;28;20104;-73
2023/09/15 09:13:53;;;;;;;0.30;0.30;;;19.70;99.90;;;;;;5089597;28;20058;-73
2023/09/15 09:16:20;;;;;;;0.45;0.45;;;19.70;99.90;;;;;;5099167;27;20043;-73
2023/09/15 09:18:57;;;;;;;0.45;0.45;;;19.80;99.90;;;;;;5097442;28;20090;-73
2023/09/15 09:21:28;;;;;;;0.40;0.40;;;20.00;99.90;;;;;;5083091;28;20187;-73
2023/09/15 09:23:55;;;;;;;0.30;0.30;;;20.20;99.90;;;;;;5091112;28;20059;-73
2023/09/15 09:26:20;;;;;;;0.40;0.40;;;20.40;99.90;;;;;;5091904;28;20115;-73
2023/09/15 09:28:47;;;;;;;0.40;0.40;;;20.70;99.90;;;;;;5116558;27;20071;-73
2023/09/15 09:31:13;;;;;;;0.40;0.40;;;20.80;99.90;;;;;;5097378;28;20099;-72
2023/09/15 09:33:38;;;;;;;1.17;0.75;;;20.70;99.90;;;;;;5098526;28;20138;-72
2023/09/15 09:36:12;;;;;;;0.80;0.80;;;20.80;99.90;;;;;;5090407;28;20118;-73
2023/09/15 09:38:40;;;;;;;0.40;0.40;;;20.80;99.90;;;;;;5099928;28;20047;-72
2023/09/15 09:41:05;;;;;;;1.23;1.13;;;20.80;99.90;;;;;;5091346;28;20105;-72
2023/09/15 09:43:33;;;;;;;0.95;0.95;;;21.00;99.90;;;;;;5092070;28;20043;-72
2023/09/15 09:45:59;;;;;;;0.40;0.40;;;21.10;99.90;;;;;;5092085;28;20504;-72
2023/09/15 09:48:26;;;;;;;1.10;1.05;;;21.30;99.90;;;;;;5090187;28;20045;-72
2023/09/15 09:50:54;;;;;;;0.60;0.60;;;21.40;99.90;;;;;;5095946;28;20492;-72
2023/09/15 09:53:32;;;;;;;0.60;0.60;;;21.50;99.90;;;;;;5085056;28;20043;-72
2023/09/15 09:56:03;;;;;;;0.45;0.35;;;21.70;99.90;;;;;;5095259;28;20039;-72
2023/09/15 09:58:31;;;;;;;0.43;0.43;;;21.90;99.90;;;;;;5090992;28;20044;-72
2023/09/15 10:00:58;;;;;;;0.47;0.47;;;22.00;99.90;;;;;;5086168;28;20054;-72
2023/09/15 10:03:24;;;;;;;0.50;0.50;;;22.10;99.90;;;;;;5095013;28;20043;-72
2023/09/15 10:05:51;;;;;;;0.50;0.50;;;22.10;99.90;;;;;;5100222;28;20099;-72
2023/09/15 10:08:18;;;;;;;0.50;0.50;;;22.10;99.90;;;;;;5091065;28;20047;-72
2023/09/15 10:10:45;;;;;;;0.60;0.60;;;22.20;99.90;;;;;;5090108;28;20412;-72
2023/09/15 10:13:13;;;;;;;0.50;0.50;;;22.30;99.90;;;;;;5091365;28;20057;-72
2023/09/15 10:15:42;;;;;;;0.68;0.68;;;22.50;99.90;;;;;;5093705;27;20128;-72
2023/09/15 10:18:13;;;;;;;0.60;0.60;;;22.60;99.90;;;;;;5100222;27;20104;-73
2023/09/15 10:20:45;;;;;;;0.50;0.50;;;22.70;99.90;;;;;;5092637;28;20052;-72
2023/09/15 10:23:12;;;;;;;1.08;0.77;;;22.90;99.90;;;;;;5096107;27;20035;-72
2023/09/15 10:25:42;;;;;;;0.50;0.50;;;22.90;99.90;;;;;;5089872;28;20078;-72
2023/09/15 10:28:13;;;;;;;0.30;0.30;;;23.00;99.90;;;;;;5090557;28;20067;-72
2023/09/15 10:30:39;;;;;;;0.50;0.50;;;23.10;99.90;;;;;;5112207;27;20040;-72
2023/09/15 10:33:09;;;;;;;0.30;0.30;;;23.20;99.90;;;;;;5100519;28;20039;-72
2023/09/15 10:35:38;;;;;;;0.50;0.50;;;23.40;99.90;;;;;;5110325;28;20044;-72
2023/09/15 10:38:04;;;;;;;0.30;0.30;;;23.40;99.90;;;;;;5100155;27;20045;-72
2023/09/15 10:40:45;;;;;;;0.55;0.55;;;23.50;99.90;;;;;;5100893;27;20724;-72
2023/09/15 10:43:12;;;;;;;0.52;0.52;;;23.50;99.90;;;;;;5093222;28;20051;-72
2023/09/15 10:45:38;;;;;;;0.50;0.50;;;23.50;99.90;;;;;;5092515;28;20096;-72
2023/09/15 10:48:04;;;;;;;0.50;0.50;;;23.70;99.90;;;;;;5108133;27;20047;-73
2023/09/15 10:50:39;;;;;;;1.02;1.02;;;23.60;99.90;;;;;;5102349;27;20043;-73
2023/09/15 10:53:10;;;;;;;1.38;1.35;;;23.60;99.90;;;;;;5089227;28;20069;-72
2023/09/15 10:55:37;;;;;;;1.15;1.13;;;23.70;99.90;;;;;;5109722;27;20730;-72
2023/09/15 10:58:04;;;;;;;0.50;0.50;;;23.80;99.90;;;;;;5092071;28;20048;-72
2023/09/15 11:00:30;;;;;;;0.30;0.30;;;23.90;99.90;;;;;;5108254;28;20079;-71
2023/09/15 11:02:56;;;;;;;0.40;0.40;;;24.00;99.90;;;;;;5089116;28;20075;-71
2023/09/15 11:05:22;;;;;;;0.50;0.50;;;24.10;99.90;;;;;;5080192;28;20067;-72
2023/09/15 11:07:48;;;;;;;0.50;0.50;;;24.20;99.90;;;;;;5089187;28;20039;-72
2023/09/15 11:10:14;;;;;;;0.40;0.40;;;24.20;99.90;;;;;;5103180;27;20044;-72
2023/09/15 11:12:39;;;;;;;0.65;0.50;;;24.30;99.90;;;;;;5099499;28;20130;-72
2023/09/15 11:15:06;;;;;;;0.60;0.60;;;24.40;99.90;;;;;;5102139;27;20051;-72
2023/09/15 11:17:32;;;;;;;0.90;0.50;;;24.50;99.90;;;;;;5092699;28;20165;-72
2023/09/15 11:19:59;;;;;;;0.73;0.73;;;24.50;99.90;;;;;;5113932;27;20062;-72
2023/09/15 11:22:26;;;;;;;0.50;0.50;;;24.50;99.90;;;;;;5090226;28;20048;-72
2023/09/15 11:24:52;;;;;;;0.40;0.40;;;24.50;99.90;;;;;;5102980;28;20473;-72
2023/09/15 11:27:18;;;;;;;0.43;0.43;;;24.50;99.90;;;;;;5092514;27;20492;-72
2023/09/15 11:29:43;;;;;;;0.52;0.52;;;24.50;99.90;;;;;;5096930;28;20052;-72
2023/09/15 11:32:09;;;;;;;0.43;0.43;;;24.60;99.90;;;;;;5091749;28;20865;-73
2023/09/15 11:34:35;;;;;;;0.63;0.63;;;24.70;99.90;;;;;;5086081;27;20044;-72
2023/09/15 11:37:01;;;;;;;1.02;1.02;;;24.80;99.90;;;;;;5087899;28;20043;-72
2023/09/15 11:39:29;;;;;;;0.52;0.52;;;24.80;99.90;;;;;;5114689;27;20031;-71
2023/09/15 11:41:54;;;;;;;0.85;0.57;;;24.90;99.90;;;;;;5110907;27;20504;-72
2023/09/15 11:44:31;;;;;;;0.50;0.50;;;24.90;99.90;;;;;;5091891;28;20039;-71
2023/09/15 11:46:59;;;;;;;1.08;0.90;;;25.00;99.90;;;;;;5095933;27;20546;-71
2023/09/15 11:49:25;;;;;;;0.40;0.40;;;24.90;99.90;;;;;;5095841;28;20079;-72
2023/09/15 11:51:55;;;;;;;0.60;0.60;;;24.80;99.90;;;;;;5091777;28;20076;-71
2023/09/15 11:54:21;;;;;;;0.52;0.52;;;24.80;99.90;;;;;;5102490;28;20044;-71
2023/09/15 11:56:47;;;;;;;1.90;1.30;;;24.80;99.90;;;;;;5097586;27;20089;-71
2023/09/15 11:59:15;;;;;;;0.63;0.63;;;24.80;99.90;;;;;;5095620;27;20083;-71
2023/09/15 12:01:41;;;;;;;0.32;0.32;;;24.90;99.90;;;;;;5090808;28;20050;-71
2023/09/15 12:04:08;;;;;;;0.38;0.38;;;24.90;99.90;;;;;;5109052;27;20055;-71
2023/09/15 12:06:34;;;;;;;0.45;0.45;;;24.90;99.90;;;;;;5097368;28;20093;-71
2023/09/15 12:09:00;;;;;;;0.30;0.30;;;24.90;99.90;;;;;;5094267;27;20040;-71
2023/09/15 12:11:25;;;;;;;0.40;0.40;;;25.00;99.90;;;;;;5094319;28;20039;-71
2023/09/15 12:13:54;;;;;;;0.93;0.93;;;25.10;99.90;;;;;;5074249;28;20051;-71
2023/09/15 12:16:27;;;;;;;0.35;0.35;;;25.20;99.70;;;;;;5102868;28;20088;-71
2023/09/15 12:18:54;;;;;;;0.77;0.77;;;25.20;99.30;;;;;;5091163;28;20039;-71
2023/09/15 12:21:27;;;;;;;0.60;0.60;;;25.20;99.80;;;;;;5092635;27;20066;-71
2023/09/15 12:23:54;;;;;;;0.60;0.60;;;25.20;99.90;;;;;;5097258;28;20047;-72
2023/09/15 12:26:21;;;;;;;0.68;0.68;;;25.10;99.90;;;;;;5097844;27;20126;-72
2023/09/15 12:28:48;;;;;;;0.40;0.40;;;24.90;99.90;;;;;;5092884;27;20330;-71
2023/09/15 12:31:20;;;;;;;0.52;0.52;;;24.70;99.90;;;;;;5115024;27;20047;-71
2023/09/15 12:33:45;;;;;;;0.50;0.50;;;24.60;99.80;;;;;;5079561;27;20046;-71
2023/09/15 12:36:15;;;;;;;0.50;0.50;;;24.60;99.90;;;;;;5107946;28;20036;-71
2023/09/15 12:38:42;;;;;;;0.70;0.70;;;24.60;99.90;;;;;;5086402;28;20087;-71
2023/09/15 12:41:08;;;;;;;0.70;0.70;;;24.70;99.10;;;;;;5091801;28;20814;-72
2023/09/15 12:43:35;;;;;;;0.50;0.50;;;24.80;99.90;;;;;;5097210;28;20047;-72
2023/09/15 12:46:00;;;;;;;0.40;0.40;;;24.80;99.60;;;;;;5090553;28;20081;-72
2023/09/15 12:48:26;;;;;;;0.60;0.60;;;24.80;99.90;;;;;;5104012;28;20051;-72
2023/09/15 12:50:53;;;;;;;1.23;1.17;;;24.80;99.70;;;;;;5081499;28;20411;-72